sensor_id;sensor_type;location;lat;lon;timestamp;pressure;altitude;pressure_sealevel;temperature;humidity
69593;BME280;56796;50.122;14.468;2023-02-13T00:06:33;1000.31;;;5.81;99.05
69593;BME280;56796;50.122;14.468;2023-02-13T00:25:59;1000.16;;;5.77;99.59
69593;BME280;56796;50.122;14.468;2023-02-13T00:45:25;1000.27;;;5.62;99.85
69593;BME280;56796;50.122;14.468;2023-02-13T01:04:50;1000.29;;;5.53;100
69593;BME280;56796;50.122;14.468;2023-02-13T01:24:15;1000.21;;;5.5;100
69593;BME280;56796;50.122;14.468;2023-02-13T01:43:43;1000.11;;;5.46;100
69593;BME280;56796;50.122;14.468;2023-02-13T02:03:07;1000.15;;;5.4;100
69593;BME280;56796;50.122;14.468;2023-02-13T02:42:03;999.94;;;5.33;100
69593;BME280;56796;50.122;14.468;2023-02-13T03:01:19;999.76;;;5.23;100
69593;BME280;56796;50.122;14.468;2023-02-13T03:20:44;999.73;;;5.21;100
69593;BME280;56796;50.122;14.468;2023-02-13T03:40:11;999.79;;;5.15;100
69593;BME280;56796;50.122;14.468;2023-02-13T03:59:35;999.79;;;5.18;100
69593;BME280;56796;50.122;14.468;2023-02-13T04:19:00;999.83;;;5.18;100
69593;BME280;56796;50.122;14.468;2023-02-13T04:38:26;999.72;;;5.11;100
69593;BME280;56796;50.122;14.468;2023-02-13T04:57:52;999.84;;;5.15;100
69593;BME280;56796;50.122;14.468;2023-02-13T05:17:18;999.8;;;5.1;99.78
69593;BME280;56796;50.122;14.468;2023-02-13T05:36:44;999.81;;;5.19;99.38
69593;BME280;56796;50.122;14.468;2023-02-13T05:56:10;999.83;;;5.13;99.18
69593;BME280;56796;50.122;14.468;2023-02-13T06:15:36;999.92;;;5.1;99.24
69593;BME280;56796;50.122;14.468;2023-02-13T06:35:03;999.93;;;5.14;99.26
69593;BME280;56796;50.122;14.468;2023-02-13T06:54:28;1000.04;;;5.17;98.82
69593;BME280;56796;50.122;14.468;2023-02-13T07:13:55;1000.05;;;5.23;98.42
69593;BME280;56796;50.122;14.468;2023-02-13T07:33:21;1000.28;;;5.45;97.79
69593;BME280;56796;50.122;14.468;2023-02-13T07:52:51;1000.22;;;5.57;96.76
69593;BME280;56796;50.122;14.468;2023-02-13T08:12:14;1000.16;;;5.79;95.52
69593;BME280;56796;50.122;14.468;2023-02-13T08:31:42;1000.1;;;6;93.91
69593;BME280;56796;50.122;14.468;2023-02-13T08:51:10;1000.19;;;6.34;92.03
69593;BME280;56796;50.122;14.468;2023-02-13T09:10:37;1000.27;;;6.66;90.19
69593;BME280;56796;50.122;14.468;2023-02-13T09:30:05;1000.24;;;7.22;88.38
69593;BME280;56796;50.122;14.468;2023-02-13T09:49:34;1000.21;;;7.64;86.26
69593;BME280;56796;50.122;14.468;2023-02-13T10:09:03;1000.31;;;7.92;84.51
69593;BME280;56796;50.122;14.468;2023-02-13T10:28:28;1000.39;;;7.95;83.5
69593;BME280;56796;50.122;14.468;2023-02-13T10:47:56;1000.19;;;8.35;82.28
69593;BME280;56796;50.122;14.468;2023-02-13T11:07:20;1000.05;;;8.63;80.29
69593;BME280;56796;50.122;14.468;2023-02-13T11:26:49;999.89;;;9.72;75.88
69593;BME280;56796;50.122;14.468;2023-02-13T11:46:20;999.9;;;10.4;71.84
69593;BME280;56796;50.122;14.468;2023-02-13T12:25:18;999.52;;;10.45;67.55
69593;BME280;56796;50.122;14.468;2023-02-13T12:44:43;999.23;;;10.68;65.15
69593;BME280;56796;50.122;14.468;2023-02-13T13:04:09;999.05;;;11.09;63.21
69593;BME280;56796;50.122;14.468;2023-02-13T13:23:35;999.14;;;10.75;63.24
69593;BME280;56796;50.122;14.468;2023-02-13T13:43:03;998.92;;;11.03;61.37
69593;BME280;56796;50.122;14.468;2023-02-13T14:21:52;999.06;;;10.18;64.04
69593;BME280;56796;50.122;14.468;2023-02-13T15:00:45;998.97;;;9.38;66.08
69593;BME280;56796;50.122;14.468;2023-02-13T15:20:06;998.8;;;9.1;66.62
69593;BME280;56796;50.122;14.468;2023-02-13T15:39:28;998.86;;;8.47;68.07
69593;BME280;56796;50.122;14.468;2023-02-13T15:58:52;998.7;;;8.1;69.44
69593;BME280;56796;50.122;14.468;2023-02-13T16:18:16;998.66;;;7.7;70.62
69593;BME280;56796;50.122;14.468;2023-02-13T16:57:14;998.82;;;6.92;73.44
69593;BME280;56796;50.122;14.468;2023-02-13T17:16:29;998.77;;;6.52;74.87
69593;BME280;56796;50.122;14.468;2023-02-13T17:35:56;998.53;;;6.13;76.49
69593;BME280;56796;50.122;14.468;2023-02-13T17:55:15;998.61;;;5.95;77.17
69593;BME280;56796;50.122;14.468;2023-02-13T18:14:39;998.73;;;5.74;78
69593;BME280;56796;50.122;14.468;2023-02-13T18:34:08;998.78;;;5.42;78.41
69593;BME280;56796;50.122;14.468;2023-02-13T18:53:24;998.61;;;5;80.15
69593;BME280;56796;50.122;14.468;2023-02-13T19:12:50;998.33;;;4.91;81.31
69593;BME280;56796;50.122;14.468;2023-02-13T19:32:15;998.54;;;4.76;82.42
69593;BME280;56796;50.122;14.468;2023-02-13T19:51:40;998.69;;;4.38;83.04
69593;BME280;56796;50.122;14.468;2023-02-13T20:11:05;998.53;;;4.42;83.54
69593;BME280;56796;50.122;14.468;2023-02-13T20:30:31;998.5;;;4.08;84.03
69593;BME280;56796;50.122;14.468;2023-02-13T20:49:56;998.47;;;4.02;85.07
69593;BME280;56796;50.122;14.468;2023-02-13T21:09:20;998.5;;;3.76;85.61
69593;BME280;56796;50.122;14.468;2023-02-13T21:28:46;998.72;;;3.47;86.88
69593;BME280;56796;50.122;14.468;2023-02-13T21:48:10;998.64;;;3.2;88.08
69593;BME280;56796;50.122;14.468;2023-02-13T22:07:35;998.85;;;3.14;89.14
69593;BME280;56796;50.122;14.468;2023-02-13T22:27:01;999.08;;;2.91;89.82
69593;BME280;56796;50.122;14.468;2023-02-13T22:46:27;999.37;;;2.93;90.09
69593;BME280;56796;50.122;14.468;2023-02-13T23:05:53;999.43;;;3.32;90.38
69593;BME280;56796;50.122;14.468;2023-02-13T23:25:22;999.56;;;3.54;89.66
69593;BME280;56796;50.122;14.468;2023-02-13T23:44:41;999.66;;;3.58;89.48
